createdAt,value
2018-06-25T00:02:22.906Z,9.70
2018-06-25T00:04:51.585Z,11.77
2018-06-25T00:07:20.092Z,10.40
2018-06-25T00:09:48.699Z,10.50
2018-06-25T00:12:17.442Z,10.33
2018-06-25T00:14:46.013Z,10.60
2018-06-25T00:26:12.063Z,9.85
2018-06-25T00:28:40.218Z,11.40
2018-06-25T00:31:08.792Z,12.23
2018-06-25T00:42:16.419Z,11.63
2018-06-25T00:44:46.982Z,11.10
2018-06-25T01:06:23.426Z,11.50
2018-06-25T01:08:51.966Z,11.60
2018-06-25T01:11:20.144Z,12.13
2018-06-25T01:13:48.653Z,12.97
2018-06-25T01:16:17.606Z,11.93
2018-06-25T01:18:46.731Z,11.10
2018-06-25T01:33:42.182Z,13.27
2018-06-25T01:36:10.799Z,13.80
2018-06-25T01:38:39.258Z,13.07
2018-06-25T01:41:07.834Z,12.80
2018-06-25T01:43:36.331Z,13.77
2018-06-25T01:46:05.094Z,13.17
2018-06-25T01:48:33.600Z,11.93
2018-06-25T01:51:03.551Z,12.90
2018-06-25T01:53:32.086Z,13.00
2018-06-25T01:56:00.229Z,13.13
2018-06-25T01:58:28.735Z,12.70
2018-06-25T02:00:57.234Z,13.60
2018-06-25T02:03:25.719Z,13.73
2018-06-25T02:05:54.235Z,12.43
2018-06-25T02:08:22.746Z,12.50
2018-06-25T02:10:51.270Z,12.83
2018-06-25T02:13:19.823Z,13.37
2018-06-25T02:15:47.978Z,13.80
2018-06-25T02:18:17.567Z,13.20
2018-06-25T02:20:46.436Z,12.33
2018-06-25T02:32:06.605Z,13.18
2018-06-25T02:34:35.064Z,13.07
2018-06-25T02:37:03.587Z,12.97
2018-06-25T02:39:32.110Z,14.20
2018-06-25T02:42:00.613Z,13.90
2018-06-25T02:44:29.212Z,14.23
2018-06-25T02:46:58.232Z,13.60
2018-06-25T02:49:26.696Z,13.10
2018-06-25T02:51:55.166Z,13.57
2018-06-25T02:54:23.725Z,14.10
2018-06-25T02:56:52.425Z,13.37
2018-06-25T02:59:21.062Z,14.20
2018-06-25T03:01:49.562Z,13.70
2018-06-25T03:04:18.063Z,13.17
2018-06-25T03:06:48.117Z,12.70
2018-06-25T03:09:17.499Z,12.47
2018-06-25T03:11:45.973Z,13.47
2018-06-25T03:34:54.243Z,9.93
2018-06-25T03:37:22.758Z,10.23
2018-06-25T03:39:51.237Z,10.73
2018-06-25T03:42:19.666Z,12.10
2018-06-25T03:44:48.187Z,10.63
2018-06-25T03:47:17.346Z,10.90
2018-06-25T03:49:45.844Z,10.67
2018-06-25T04:04:40.954Z,10.67
2018-06-25T04:07:09.246Z,10.60
2018-06-25T04:09:37.734Z,11.10
2018-06-25T04:12:06.277Z,10.23
2018-06-25T04:14:34.759Z,10.87
2018-06-25T04:17:03.432Z,10.00
2018-06-25T04:19:31.892Z,10.90
2018-06-25T04:22:01.078Z,10.30
2018-06-25T04:24:30.127Z,10.40
2018-06-25T04:26:58.703Z,9.87
2018-06-25T04:29:26.893Z,9.50
2018-06-25T04:31:55.510Z,10.13
2018-06-25T04:34:24.010Z,8.47
2018-06-25T04:36:52.670Z,9.95
2018-06-25T04:39:21.159Z,8.88
2018-06-25T04:41:49.739Z,8.73
2018-06-25T04:44:18.350Z,9.50
2018-06-25T04:46:46.925Z,10.07
2018-06-25T04:49:17.067Z,10.00
2018-06-25T04:51:46.183Z,8.70
2018-06-25T04:54:16.847Z,9.13
2018-06-25T04:56:45.399Z,8.83
2018-06-25T05:08:12.614Z,8.28
2018-06-25T05:10:41.096Z,7.87
2018-06-25T05:13:09.580Z,8.07
2018-06-25T05:24:17.334Z,6.23
2018-06-25T05:26:46.979Z,8.33
2018-06-25T05:38:31.090Z,7.17
2018-06-25T05:40:59.631Z,6.10
2018-06-25T05:43:28.133Z,6.67
2018-06-25T05:45:56.708Z,5.93
2018-06-25T05:48:25.227Z,6.73
2018-06-25T05:50:55.394Z,5.93
2018-06-25T05:53:23.901Z,5.60
2018-06-25T05:55:52.491Z,7.03
2018-06-25T05:58:20.959Z,6.22
2018-06-25T06:00:49.856Z,6.13
2018-06-25T06:03:18.399Z,6.28
2018-06-25T06:05:46.990Z,5.80
2018-06-25T06:08:17.980Z,6.68
2018-06-25T06:10:46.515Z,6.58
2018-06-25T06:25:47.659Z,6.97
2018-06-25T06:28:17.266Z,6.60
2018-06-25T06:30:45.827Z,5.70
2018-06-25T06:45:41.046Z,6.13
2018-06-25T06:48:09.602Z,5.63
2018-06-25T06:59:17.954Z,6.40
2018-06-25T07:01:46.500Z,5.90
2018-06-25T07:16:35.098Z,6.13
2018-06-25T07:19:03.628Z,6.47
2018-06-25T07:21:32.342Z,5.67
2018-06-25T07:24:00.831Z,6.00
2018-06-25T07:26:29.340Z,5.00
2018-06-25T07:28:58.288Z,6.23
2018-06-25T07:31:26.785Z,5.63
2018-06-25T07:33:55.376Z,6.37
2018-06-25T07:36:23.851Z,4.83
2018-06-25T07:38:52.510Z,6.90
2018-06-25T07:41:21.036Z,4.22
2018-06-25T07:43:49.498Z,4.43
2018-06-25T07:46:18.079Z,4.10
2018-06-25T07:48:47.903Z,3.90
2018-06-25T07:51:17.627Z,2.97
2018-06-25T07:53:46.119Z,3.63
2018-06-25T08:04:36.158Z,3.73
2018-06-25T08:07:04.675Z,3.90
2018-06-25T08:09:32.861Z,4.93
2018-06-25T08:12:01.472Z,5.50
2018-06-25T08:14:29.982Z,5.85
2018-06-25T08:16:58.459Z,5.63
2018-06-25T08:19:27.032Z,6.20
2018-06-25T08:21:55.546Z,7.00
2018-06-25T08:24:24.158Z,6.27
2018-06-25T08:26:53.223Z,6.20
2018-06-25T08:29:22.632Z,5.97
2018-06-25T08:31:51.082Z,4.40
2018-06-25T08:34:19.696Z,5.00
2018-06-25T08:36:47.758Z,4.57
2018-06-25T08:39:17.802Z,4.24
2018-06-25T08:41:46.325Z,4.00
2018-06-25T08:44:16.390Z,5.55
2018-06-25T08:46:45.047Z,5.20
2018-06-25T08:49:14.541Z,4.85
2018-06-25T08:51:43.523Z,3.87
2018-06-25T08:54:11.986Z,4.80
2018-06-25T08:56:40.504Z,5.03
2018-06-25T08:59:09.264Z,4.90
2018-06-25T09:10:17.391Z,5.47
2018-06-25T09:12:45.898Z,5.80
2018-06-25T09:37:31.062Z,4.70
2018-06-25T09:39:59.626Z,3.80
2018-06-25T09:42:28.296Z,4.20
2018-06-25T09:44:57.008Z,4.10
2018-06-25T09:47:25.543Z,3.97
2018-06-25T09:49:54.047Z,4.50
2018-06-25T09:52:22.551Z,4.17
2018-06-25T09:54:51.430Z,4.10
2018-06-25T09:57:19.910Z,4.33
2018-06-25T09:59:48.408Z,4.65
2018-06-25T10:02:17.572Z,4.37
2018-06-25T10:04:46.348Z,4.03
2018-06-25T10:15:37.192Z,3.30
2018-06-25T10:18:05.802Z,3.93
2018-06-25T10:20:34.263Z,3.37
2018-06-25T10:23:02.901Z,3.23
2018-06-25T10:25:31.573Z,3.07
2018-06-25T10:28:00.102Z,3.27
2018-06-25T10:30:28.624Z,3.00
2018-06-25T10:32:57.130Z,4.03
2018-06-25T10:35:25.277Z,4.00
2018-06-25T10:37:55.457Z,4.40
2018-06-25T10:40:23.914Z,4.20
2018-06-25T10:42:52.534Z,4.20
2018-06-25T10:45:21.182Z,5.20
2018-06-25T10:47:49.876Z,5.67
2018-06-25T10:50:18.392Z,5.37
2018-06-25T10:52:46.911Z,5.83
2018-06-25T11:07:42.654Z,5.53
2018-06-25T11:10:11.191Z,4.87
2018-06-25T11:12:40.307Z,5.70
2018-06-25T11:15:09.001Z,5.40
2018-06-25T11:26:17.349Z,4.53
2018-06-25T11:28:45.598Z,8.70
2018-06-25T11:41:06.979Z,6.33
2018-06-25T11:43:35.452Z,4.10
2018-06-25T11:46:04.049Z,4.03
2018-06-25T11:48:32.603Z,4.03
2018-06-25T11:51:01.159Z,4.10
2018-06-25T11:53:29.786Z,3.70
2018-06-25T11:55:58.536Z,3.95
2018-06-25T11:58:27.042Z,4.20
2018-06-25T12:00:55.943Z,3.60
2018-06-25T12:03:24.630Z,3.87
2018-06-25T12:05:53.196Z,4.07
2018-06-25T12:08:22.023Z,4.33
2018-06-25T12:10:50.583Z,3.80
2018-06-25T12:13:20.029Z,4.37
2018-06-25T12:15:51.231Z,4.28
2018-06-25T12:18:20.018Z,3.90
2018-06-25T12:20:48.525Z,3.67
2018-06-25T12:23:22.776Z,3.83
2018-06-25T12:25:51.347Z,4.57
2018-06-25T12:28:19.865Z,4.27
2018-06-25T12:30:48.553Z,3.60
2018-06-25T12:33:17.395Z,3.87
2018-06-25T12:35:46.132Z,3.20
2018-06-25T12:38:15.661Z,7.40
2018-06-25T12:40:44.144Z,4.27
2018-06-25T12:43:13.109Z,3.87
2018-06-25T12:45:42.002Z,4.47
2018-06-25T12:48:10.504Z,3.70
2018-06-25T12:50:40.000Z,3.53
2018-06-25T12:53:08.524Z,3.97
2018-06-25T12:55:37.006Z,3.30
2018-06-25T12:58:05.349Z,3.57
2018-06-25T13:00:33.854Z,4.10
2018-06-25T13:03:03.591Z,4.20
2018-06-25T13:05:34.297Z,4.47
2018-06-25T13:08:02.882Z,4.10
2018-06-25T13:10:31.548Z,4.70
2018-06-25T13:13:00.395Z,3.97
2018-06-25T13:15:29.715Z,4.10
2018-06-25T13:17:58.160Z,4.40
2018-06-25T13:20:26.647Z,3.90
2018-06-25T13:22:55.115Z,4.27
2018-06-25T13:25:23.637Z,3.70
2018-06-25T13:27:52.660Z,4.27
2018-06-25T13:30:21.314Z,3.37
2018-06-25T13:32:49.916Z,3.60
2018-06-25T13:35:18.535Z,3.50
2018-06-25T13:37:47.052Z,3.60
2018-06-25T13:40:17.360Z,3.30
2018-06-25T13:42:45.999Z,3.10
2018-06-25T13:45:17.466Z,3.73
2018-06-25T13:47:46.183Z,3.47
2018-06-25T13:50:16.907Z,2.80
2018-06-25T13:52:45.442Z,3.10
2018-06-25T13:55:15.596Z,2.72
2018-06-25T13:57:44.205Z,2.50
2018-06-25T14:00:12.775Z,2.00
2018-06-25T14:02:41.247Z,2.70
2018-06-25T14:05:10.377Z,2.30
2018-06-25T14:07:38.890Z,2.50
2018-06-25T14:10:07.117Z,2.30
2018-06-25T14:12:36.028Z,2.67
2018-06-25T14:15:05.303Z,2.70
2018-06-25T14:17:33.864Z,2.42
2018-06-25T14:20:04.641Z,2.00
2018-06-25T14:22:33.131Z,2.20
2018-06-25T14:25:02.316Z,1.97
2018-06-25T14:27:36.331Z,2.33
2018-06-25T14:30:10.427Z,2.83
2018-06-25T14:32:39.238Z,1.93
2018-06-25T14:35:13.135Z,2.63
2018-06-25T14:37:41.611Z,2.10
2018-06-25T14:40:10.163Z,1.80
2018-06-25T14:42:38.632Z,2.17
2018-06-25T14:45:07.359Z,2.13
2018-06-25T14:47:35.959Z,2.20
2018-06-25T14:50:04.836Z,2.08
2018-06-25T14:52:34.074Z,1.80
2018-06-25T14:55:02.586Z,2.10
2018-06-25T14:57:32.129Z,1.95
2018-06-25T15:00:00.695Z,1.80
2018-06-25T15:02:29.910Z,2.50
2018-06-25T15:04:58.507Z,1.90
2018-06-25T15:07:27.027Z,3.13
2018-06-25T15:09:55.162Z,2.00
2018-06-25T15:12:23.655Z,2.53
2018-06-25T15:14:52.651Z,2.50
2018-06-25T15:17:21.214Z,2.45
2018-06-25T15:19:49.718Z,1.90
2018-06-25T15:22:18.250Z,2.20
2018-06-25T15:24:46.751Z,2.10
2018-06-25T15:27:16.575Z,2.30
2018-06-25T15:29:45.158Z,2.10
2018-06-25T15:32:14.633Z,2.07
2018-06-25T15:34:43.117Z,2.47
2018-06-25T15:37:11.727Z,2.70
2018-06-25T15:39:40.218Z,2.20
2018-06-25T15:42:08.716Z,2.30
2018-06-25T15:50:17.466Z,2.80
2018-06-25T15:52:45.679Z,2.47
2018-06-25T15:55:15.328Z,2.60
2018-06-25T15:57:43.867Z,3.80
2018-06-25T16:00:12.441Z,2.90
2018-06-25T16:02:40.963Z,3.17
2018-06-25T16:05:09.880Z,2.58
2018-06-25T16:07:38.481Z,2.87
2018-06-25T16:10:07.041Z,3.03
2018-06-25T16:12:35.540Z,3.20
2018-06-25T16:15:04.103Z,3.43
2018-06-25T16:17:33.978Z,3.20
2018-06-25T16:20:03.045Z,3.52
2018-06-25T16:22:31.535Z,2.80
2018-06-25T16:25:01.049Z,3.30
2018-06-25T16:27:29.598Z,2.77
2018-06-25T16:29:59.959Z,3.10
2018-06-25T16:32:28.604Z,2.53
2018-06-25T16:34:57.780Z,2.70
2018-06-25T16:37:26.401Z,2.53
2018-06-25T16:39:55.959Z,2.50
2018-06-25T16:42:25.985Z,2.93
2018-06-25T16:44:54.167Z,3.60
2018-06-25T16:47:22.745Z,2.80
2018-06-25T16:49:51.353Z,3.70
2018-06-25T16:52:20.858Z,3.40
2018-06-25T16:54:49.417Z,3.20
2018-06-25T16:57:17.655Z,2.83
2018-06-25T16:59:46.297Z,2.87
2018-06-25T17:21:08.532Z,2.73
2018-06-25T17:23:37.031Z,3.40
2018-06-25T17:26:05.850Z,3.57
2018-06-25T17:28:34.453Z,3.08
2018-06-25T17:31:03.446Z,3.23
2018-06-25T17:45:02.896Z,3.50
2018-06-25T17:47:31.474Z,3.45
2018-06-25T17:50:00.147Z,3.27
2018-06-25T17:52:29.573Z,3.67
2018-06-25T17:54:58.135Z,3.63
2018-06-25T17:57:26.302Z,3.17
2018-06-25T17:59:54.821Z,3.40
2018-06-25T18:02:23.359Z,3.57
2018-06-25T18:04:51.905Z,3.63
2018-06-25T18:07:20.574Z,3.85
2018-06-25T18:09:49.437Z,4.20
2018-06-25T18:12:18.277Z,5.03
2018-06-25T18:14:47.046Z,3.83
2018-06-25T18:17:17.695Z,3.67
2018-06-25T18:19:46.276Z,3.97
2018-06-25T18:22:16.454Z,3.52
2018-06-25T18:24:45.039Z,4.00
2018-06-25T18:27:13.532Z,4.10
2018-06-25T18:29:41.999Z,3.93
2018-06-25T18:32:10.539Z,3.27
2018-06-25T18:34:39.172Z,3.40
2018-06-25T18:37:07.755Z,3.87
2018-06-25T18:39:36.873Z,3.40
2018-06-25T18:42:05.454Z,3.57
2018-06-25T18:44:34.125Z,3.47
2018-06-25T18:47:03.567Z,4.20
2018-06-25T18:49:37.550Z,3.73
2018-06-25T18:52:06.443Z,3.80
2018-06-25T18:54:35.758Z,3.77
2018-06-25T18:57:04.344Z,3.50
2018-06-25T18:59:33.850Z,3.50
2018-06-25T19:02:02.691Z,3.23
2018-06-25T19:04:31.423Z,4.23
2018-06-25T19:06:59.983Z,4.10
2018-06-25T19:09:30.891Z,4.70
2018-06-25T19:11:59.609Z,4.10
2018-06-25T19:14:28.151Z,5.17
2018-06-25T19:16:56.832Z,4.53
2018-06-25T19:19:25.382Z,4.40
2018-06-25T19:21:55.714Z,3.40
2018-06-25T19:24:24.370Z,4.17
2018-06-25T19:26:53.423Z,3.83
2018-06-25T19:29:24.555Z,4.07
2018-06-25T19:31:53.531Z,4.10
2018-06-25T19:34:22.176Z,4.30
2018-06-25T19:36:50.744Z,4.37
2018-06-25T19:39:19.448Z,4.43
2018-06-25T19:41:47.907Z,5.13
2018-06-25T19:44:17.867Z,5.05
2018-06-25T19:46:46.589Z,4.40
2018-06-25T19:49:16.513Z,4.62
2018-06-25T19:51:45.171Z,4.70
2018-06-25T19:54:14.698Z,5.20
2018-06-25T19:56:45.047Z,5.10
2018-06-25T19:59:19.654Z,4.70
2018-06-25T20:01:48.156Z,5.67
2018-06-25T20:04:17.482Z,5.50
2018-06-25T20:06:46.253Z,6.13
2018-06-25T20:09:16.535Z,5.62
2018-06-25T20:11:45.211Z,6.13
2018-06-25T20:14:14.698Z,5.60
2018-06-25T20:16:43.256Z,5.43
2018-06-25T20:19:11.774Z,5.47
2018-06-25T20:21:40.162Z,5.10
2018-06-25T20:24:10.225Z,4.73
2018-06-25T20:32:24.974Z,5.80
2018-06-25T20:34:53.606Z,5.40
2018-06-25T20:37:22.155Z,6.20
2018-06-25T20:39:51.054Z,5.43
2018-06-25T20:42:19.792Z,5.83
2018-06-25T20:44:48.264Z,5.63
2018-06-25T20:47:17.594Z,5.83
2018-06-25T20:49:46.095Z,6.13
2018-06-25T20:52:16.452Z,6.08
2018-06-25T20:54:45.016Z,6.27
2018-06-25T20:57:14.854Z,6.70
2018-06-25T20:59:43.709Z,6.60
2018-06-25T21:02:13.037Z,5.50
2018-06-25T21:04:41.666Z,6.33
2018-06-25T21:07:10.274Z,6.27
2018-06-25T21:09:38.828Z,6.87
2018-06-25T21:12:07.327Z,6.50
2018-06-25T21:14:35.826Z,6.60
2018-06-25T21:17:04.422Z,7.07
2018-06-25T21:19:36.230Z,7.00
2018-06-25T21:22:04.433Z,7.83
2018-06-25T21:24:32.995Z,6.63
2018-06-25T21:27:01.215Z,7.60
2018-06-25T21:29:29.758Z,6.77
2018-06-25T21:31:58.252Z,7.10
2018-06-25T21:34:26.846Z,6.17
2018-06-25T21:36:55.811Z,6.50
2018-06-25T21:39:24.125Z,7.17
2018-06-25T21:41:52.624Z,6.20
2018-06-25T21:44:21.231Z,7.00
2018-06-25T21:46:50.186Z,6.43
2018-06-25T21:49:18.726Z,6.90
2018-06-25T21:51:47.219Z,6.90
2018-06-25T21:54:17.463Z,6.62
2018-06-25T21:56:45.976Z,7.13
2018-06-25T21:59:16.366Z,6.90
2018-06-25T22:01:49.507Z,6.27
2018-06-25T22:04:17.994Z,6.40
2018-06-25T22:06:46.469Z,6.20
2018-06-25T22:09:16.639Z,6.05
2018-06-25T22:11:45.266Z,7.10
2018-06-25T22:14:14.695Z,6.77
2018-06-25T22:16:43.791Z,7.13
2018-06-25T22:19:12.339Z,7.07
2018-06-25T22:21:41.048Z,6.90
2018-06-25T22:24:09.265Z,8.03
2018-06-25T22:26:37.746Z,7.10
2018-06-25T22:29:06.855Z,7.87
2018-06-25T22:31:36.355Z,6.55
2018-06-25T22:34:05.143Z,7.13
2018-06-25T22:36:33.856Z,7.25
2018-06-25T22:39:02.472Z,7.80
2018-06-25T22:41:30.950Z,6.60
2018-06-25T22:44:09.560Z,8.20
2018-06-25T22:46:39.006Z,7.90
2018-06-25T22:49:07.526Z,7.80
2018-06-25T22:51:36.614Z,8.73
2018-06-25T22:54:05.910Z,7.00
2018-06-25T22:56:34.667Z,7.70
2018-06-25T22:59:03.338Z,7.13
2018-06-25T23:01:32.759Z,7.60
2018-06-25T23:04:01.247Z,8.00
2018-06-25T23:06:30.218Z,7.30
2018-06-25T23:08:59.531Z,7.40
2018-06-25T23:11:28.060Z,7.50
2018-06-25T23:13:57.815Z,8.43
2018-06-25T23:16:26.278Z,7.40
2018-06-25T23:18:54.858Z,7.50
2018-06-25T23:21:23.383Z,7.73
2018-06-25T23:23:51.887Z,7.93
2018-06-25T23:26:20.359Z,7.10
2018-06-25T23:28:48.869Z,8.07
2018-06-25T23:31:17.354Z,8.30
2018-06-25T23:33:45.521Z,7.87
2018-06-25T23:36:15.399Z,8.17
2018-06-25T23:38:43.868Z,7.73
2018-06-25T23:41:12.395Z,8.60
2018-06-25T23:43:40.954Z,8.80
2018-06-25T23:46:09.475Z,8.40
2018-06-25T23:48:37.954Z,8.33
2018-06-25T23:51:06.464Z,9.00
2018-06-25T23:53:34.955Z,9.80
2018-06-25T23:56:03.504Z,8.93
2018-06-25T23:58:32.435Z,8.20
